Clover Valley, Nevada Weather observations

Data are for 10 minute period ending at time listed.
 Day   Time   Solar   Ave.   Ave.  Ave.  Vector  Max.   Baro.   Total    
  of    of     Rad.   Air    Rel.  Wind   Wind   Wind  Press.  Precip.   
Year   Day            Temp.  Hum.  Speed  Dir.   Gust                    
2017   (PST)  Kw/m2    F      %     mph   deg.    mph    mb.     in.     
-------------------------------------------------------------------------
  58    8:20   0.12   25.0    76    4.9   135     7.2   815.5    0.00 
  58    8:30   0.15   25.2    74    4.3   141     6.6   815.5    0.00 
  58    8:40   0.18   25.5    73    4.6   142     6.1   815.6    0.00 
  58    8:50   0.21   25.8    71    4.5   152    11.1   815.6    0.00 
  58    9:00   0.26   25.8    62    6.3   218     9.4   815.6    0.00 
  58    9:10   0.24   25.5    60    9.7   230    14.1   815.5    0.00 
  58    9:20   0.22   25.2    58    9.3   220    16.0   815.5    0.00 
  58    9:30   0.29   25.7    54    9.9   219    15.3   815.6    0.00 
  58    9:40   0.27   25.5    52   12.8   217    20.1   815.6    0.00 
  58    9:50   0.34   26.0    45   11.8   218    18.0   815.7    0.00 
  58   10:00   0.40   26.5    46   11.3   241    18.7   816.0    0.00 
  58   10:10   0.47   26.5    47   12.9   246    18.6   816.2    0.00 
  58   10:20   0.45   26.3    49   14.7   233    21.2   816.3    0.00 
  58   10:30   0.46   26.1    53   15.2   235    21.2   816.5    0.00 
  58   10:40   0.52   26.2    54   15.5   240    22.6   816.5    0.00 
  58   10:50   0.63   26.7    54   14.7   234    20.1   816.5    0.00 
  58   11:00   0.54   26.5    55   14.8   232    21.8   816.6    0.01 
  58   11:10   0.67   26.9    53   15.3   240    22.7   816.8    0.00 
  58   11:20   0.72   27.4    50   15.3   254    24.8   816.9    0.00 
  58   11:30   0.68   27.0    53   17.4   253    24.5   816.9    0.00 
  58   11:40   0.73   27.0    54   15.9   263    23.8   816.9    0.00 
  58   11:50   0.68   27.1    54   17.4   267    25.4   816.8    0.00 
  58   12:00   0.78   27.2    55   18.6   259    25.4   816.8    0.00 
  58   12:10   0.77   27.7    55   16.0   260    26.1   816.8    0.00 
  58   12:20   0.79   28.3    55   16.4   256    26.0   816.8    0.00 
  58   12:30   0.63   27.5    55   16.1   262    22.6   816.8    0.00 
  58   12:40   0.70   27.3    59   13.9   266    21.8   816.8    0.00 
  58   12:50   0.73   27.9    57   16.9   263    26.0   816.8    0.00 
  58   13:00   0.72   28.1    56   14.9   265    21.4   816.8    0.00 
  58   13:10   0.73   28.8    54   12.0   261    18.9   816.8    0.00 
  58   13:20   0.83   29.5    56   14.3   253    22.6   816.7    0.00 
  58   13:30   0.77   29.5    54   15.9   254    26.0   816.6    0.00 
  58   13:40   0.57   29.1    52   18.0   251    27.5   816.6    0.00 
  58   13:50   0.48   27.8    58   16.4   237    25.7   816.7    0.00 
  58   14:00   0.56   28.9    54   12.6   252    18.9   816.8    0.00 
  58   14:10   0.76   29.9    51   14.8   254    25.4   816.9    0.00 
  58   14:20   0.73   30.3    46   18.8   260    24.5   816.8    0.00 
  58   14:30   0.60   30.2    45   14.2   269    23.7   816.9    0.00 
  58   14:40   0.26   29.1    46   14.0   261    22.9   817.0    0.00 
  58   14:50   0.35   28.9    47   12.9   264    22.5   817.1    0.00 
  58   15:00   0.18   27.8    53   15.0   250    22.9   817.2    0.00 
  58   15:10   0.33   26.9    62   17.2   241    26.1   817.4    0.00 
  58   15:20   0.31   27.1    64   12.8   236    16.8   817.5    0.00 
  58   15:30   0.18   26.9    60   13.2   233    18.6   817.6    0.00 
  58   15:40   0.20   26.7    60   13.1   227    18.1   817.7    0.00 
  58   15:50   0.20   26.6    62   11.1   210    16.4   817.8    0.00 
  58   16:00   0.12   25.9    65   10.9   200    14.8   817.8    0.00 
  58   16:10   0.07   26.1    58    8.9   215    13.7   817.7    0.00 
  58   16:20   0.08   26.5    58    9.0   221    12.2   817.7    0.00 
  58   16:30   0.05   26.6    52    6.9   210    14.5   817.7    0.00 
  58   16:40   0.10   27.1    51    6.3   212    13.7   817.6    0.00 
  58   16:50   0.04   26.9    53    7.3   236    11.7   817.6    0.00 
  58   17:00   0.03   26.7    53    6.5   246    11.9   817.6    0.00 
  58   17:10   0.02   26.7    50    6.6   244    12.6   817.7    0.00 
  58   17:20   0.02   26.7    50    7.9   224    13.5   817.8    0.00 
  58   17:30   0.01   26.7    47    8.2   218    14.5   817.8    0.00 
  58   17:40   0.00   26.6    47    9.3   232    15.0   818.0    0.00 
  58   17:50   0.00   26.5    48    8.5   246    14.6   818.1    0.00 
  58   18:00   0.00   26.2    50    9.4   216    14.2   818.2    0.00 
  58   18:10   0.00   25.7    55    7.6   217    11.7   818.2    0.00 
  58   18:20   0.00   25.3    56   10.1   228    17.7   818.3    0.00 
  58   18:30   0.00   24.8    60   11.9   228    16.5   818.3    0.00 
  58   18:40   0.00   24.5    63   13.0   236    16.7   818.4    0.00 
  58   18:50   0.00   24.6    63   12.2   239    17.0   818.5    0.00 
  58   19:00   0.00   24.5    64   10.1   236    14.5   818.5    0.00 
  58   19:10   0.00   24.3    66   12.6   233    18.6   818.5    0.00 
  58   19:20   0.00   23.8    71   10.3   227    15.5   818.5    0.00 
  58   19:30   0.00   23.3    73    9.2   217    13.7   818.5    0.00 
  58   19:40   0.00   23.7    69    7.7   211    11.5   818.5    0.00 
  58   19:50   0.00   24.0    66    1.8   164     8.0   818.6    0.00 
  58   20:00   0.00   24.4    61    2.0   273     5.3   818.8    0.00 
  58   20:10   0.00   25.1    58    6.9   253    14.2   818.9    0.00 
  58   20:20   0.00   24.9    60    9.0   252    14.0   818.9    0.00 
  58   20:30   0.00   24.7    62   10.1   232    13.8   818.8    0.00 
  58   20:40   0.00   24.6    62   10.7   234    15.3   818.7    0.00 
  58   20:50   0.00   24.7    60   12.3   240    17.2   818.6    0.00 
  58   21:00   0.00   24.7    59   11.9   245    18.3   818.6    0.00 
  58   21:10   0.00   24.7    59    8.9   267    15.0   818.8    0.00 
  58   21:20   0.00   24.4    59    8.5   258    11.9   818.8    0.00 
  58   21:30   0.00   24.2    59    5.2   259     8.8   818.8    0.00 
  58   21:40   0.00   23.4    65    4.0   306     6.7   818.7    0.00 
  58   21:50   0.00   22.6    69    4.6   310    11.0   818.8    0.00 
  58   22:00   0.00   23.5    59    4.2   306     8.8   818.8    0.00 
  58   22:10   0.00   23.3    61    5.5   312     9.3   818.9    0.00 
  58   22:20   0.00   21.2    74    4.0   328     6.3   818.9    0.00 
  58   22:30   0.00   20.8    77    5.0   335     7.2   819.0    0.00 
  58   22:40   0.00   20.6    77    3.7   331     5.3   819.1    0.00 
  58   22:50   0.00   20.4    78    3.5     4     6.1   819.0    0.00 
  58   23:00   0.00   20.1    79    1.2    57     3.6   819.0    0.00 
  58   23:10   0.00   20.0    81    2.4   326     4.2   818.9    0.00 
  58   23:20   0.00   20.0    81    1.4   304     3.0   819.0    0.00 
  58   23:30   0.00   19.9    80    2.5   310     4.8   819.0    0.00 
  58   23:40   0.00   19.9    80    3.3   316     4.4   818.9    0.00 
  58   23:50   0.00   19.8    83    2.3   303     4.0   818.9    0.00 
  59    0:00   0.00   19.9    83    3.3   288     5.8   818.8    0.00 
  59    0:10   0.00   20.3    80    4.7   304     8.1   818.9    0.00 
  59    0:20   0.00   20.4    78    5.4   292     7.8   818.8    0.00 
  59    0:30   0.00   20.2    78    3.5   306     6.1   818.8    0.00 
  59    0:40   0.00   19.9    80    2.3   296     4.6   818.9    0.00 
  59    0:50   0.00   19.6    81    3.0   305     5.3   818.9    0.00 
  59    1:00   0.00   19.4    81    2.5   308     4.6   818.9    0.00 
  59    1:10   0.00   19.3    82    2.1     8     4.0   818.9    0.00 
  59    1:20   0.00   19.3    81    2.8     1     5.5   819.0    0.00 
  59    1:30   0.00   18.8    82    3.0   288     4.3   819.0    0.00 
  59    1:40   0.00   18.6    84    1.3   302     3.1   818.9    0.00 
  59    1:50   0.00   18.5    84    4.8    92     9.5   818.8    0.00 
  59    2:00   0.00   20.2    75    3.5   114     6.1   818.9    0.00 
  59    2:10   0.00   20.1    77    1.6    90     5.1   818.9    0.00 
  59    2:20   0.00   20.4    75    3.1    94     5.3   818.9    0.00 
  59    2:30   0.00   20.5    75    2.6   146     5.9   818.8    0.00 
  59    2:40   0.00   20.1    76    2.9   292     9.8   818.9    0.00 
  59    2:50   0.00   19.9    75    7.0   125    10.2   818.9    0.00 
  59    3:00   0.00   20.6    70    5.4   149     9.6   818.8    0.00 
  59    3:10   0.00   20.1    72    4.0   153    11.5   818.8    0.00 
  59    3:20   0.00   23.0    62   13.1   247    20.9   818.7    0.00 
  59    3:30   0.00   23.4    58   13.6   241    19.6   818.7    0.00 
  59    3:40   0.00   23.5    57   13.8   238    18.2   818.6    0.00 
  59    3:50   0.00   23.3    58   13.1   239    17.8   818.7    0.00 
  59    4:00   0.00   23.2    58   12.6   237    16.7   818.8    0.00 
  59    4:10   0.00   23.3    57   12.7   241    17.9   818.9    0.00 
  59    4:20   0.00   23.3    56   12.1   238    15.7   819.0    0.00 
  59    4:30   0.00   23.6    56   12.1   252    15.9   819.1    0.00 
  59    4:40   0.00   21.0    70    7.2   324    12.3   819.3    0.00 
  59    4:50   0.00   19.5    78    3.2   282     5.7   819.5    0.00 
  59    5:00   0.00   19.9    74    3.9   276    15.1   819.5    0.00 
  59    5:10   0.00   23.0    64   14.7   236    23.0   819.5    0.00 
  59    5:20   0.00   22.8    67   14.4   237    18.7   819.6    0.00 
  59    5:30   0.00   22.8    68   14.1   239    19.2   819.7    0.00 
  59    5:40   0.00   22.7    69   13.7   250    18.4   819.8    0.00 
  59    5:50   0.00   22.5    71   12.0   246    16.8   819.9    0.00 
  59    6:00   0.00   22.4    71   13.9   245    19.2   819.9    0.00 
  59    6:10   0.00   22.5    70   14.7   255    19.4   820.0    0.00 
  59    6:20   0.00   23.0    67   16.4   252    20.8   820.2    0.00 
  59    6:30   0.01   23.2    66   14.7   249    21.3   820.3    0.00 
  59    6:40   0.02   23.4    65   13.3   250    18.0   820.5    0.00 
  59    6:50   0.05   23.8    62   14.4   242    21.4   820.6    0.00 
  59    7:00   0.06   24.2    60   15.6   249    21.5   820.7    0.00 
  59    7:10   0.06   24.1    60   17.3   243    25.6   820.8    0.00 
  59    7:20   0.11   24.2    61   15.1   247    22.6   820.9    0.00 
  59    7:30   0.18   25.1    59   16.4   249    23.9   821.0    0.00 
  59    7:40   0.18   25.3    58   16.1   247    23.2   821.1    0.00 
  59    7:50   0.18   25.3    57   16.1   248    21.9   821.2    0.00 
  59    8:00   0.21   25.5    57   17.8   246    21.3   821.4    0.00 
  59    8:10   0.23   26.1    57   16.1   248    21.0   821.7    0.00 

Return to Clover Valley graphs page.


Western Regional Climate Center,wrcc@dri.edu